sensor_id;sensor_type;location;lat;lon;timestamp;pressure;altitude;pressure_sealevel;temperature;humidity
14204;BME280;7185;51.854;6.622;2024-03-07T00:01:58;102235.75;;;10.79;65.01
14204;BME280;7185;51.854;6.622;2024-03-07T00:04:30;102229.59;;;10.75;64.95
14204;BME280;7185;51.854;6.622;2024-03-07T00:07:02;102229.59;;;10.72;65.21
14204;BME280;7185;51.854;6.622;2024-03-07T00:09:37;102224.41;;;10.78;65.09
14204;BME280;7185;51.854;6.622;2024-03-07T00:12:09;102230.53;;;10.80;64.90
14204;BME280;7185;51.854;6.622;2024-03-07T00:14:44;102224.34;;;10.72;64.99
14204;BME280;7185;51.854;6.622;2024-03-07T00:17:16;102226.13;;;10.73;64.77
14204;BME280;7185;51.854;6.622;2024-03-07T00:19:52;102225.16;;;10.62;65.36
14204;BME280;7185;51.854;6.622;2024-03-07T00:22:25;102231.34;;;10.70;65.05
14204;BME280;7185;51.854;6.622;2024-03-07T00:25:00;102229.56;;;10.69;64.92
14204;BME280;7185;51.854;6.622;2024-03-07T00:27:32;102229.47;;;10.54;65.17
14204;BME280;7185;51.854;6.622;2024-03-07T00:30:07;102232.09;;;10.57;65.11
14204;BME280;7185;51.854;6.622;2024-03-07T00:32:40;102231.25;;;10.56;65.07
14204;BME280;7185;51.854;6.622;2024-03-07T00:35:14;102233.00;;;10.59;65.11
14204;BME280;7185;51.854;6.622;2024-03-07T00:37:46;102231.31;;;10.67;64.90
14204;BME280;7185;51.854;6.622;2024-03-07T00:40:20;102235.53;;;10.51;64.87
14204;BME280;7185;51.854;6.622;2024-03-07T00:42:52;102231.19;;;10.51;65.15
14204;BME280;7185;51.854;6.622;2024-03-07T00:45:26;102230.34;;;10.54;64.65
14204;BME280;7185;51.854;6.622;2024-03-07T00:47:58;102230.44;;;10.66;64.72
14204;BME280;7185;51.854;6.622;2024-03-07T00:50:30;102229.53;;;10.63;64.68
14204;BME280;7185;51.854;6.622;2024-03-07T00:53:03;102233.06;;;10.65;64.74
14204;BME280;7185;51.854;6.622;2024-03-07T00:55:35;102233.88;;;10.58;64.64
14204;BME280;7185;51.854;6.622;2024-03-07T00:58:08;102238.22;;;10.56;65.05
14204;BME280;7185;51.854;6.622;2024-03-07T01:00:44;102237.22;;;10.40;65.51
14204;BME280;7185;51.854;6.622;2024-03-07T01:03:18;102236.16;;;10.25;65.75
14204;BME280;7185;51.854;6.622;2024-03-07T01:05:52;102234.50;;;10.35;65.90
14204;BME280;7185;51.854;6.622;2024-03-07T01:08:24;102235.31;;;10.29;65.66
14204;BME280;7185;51.854;6.622;2024-03-07T01:10:58;102243.31;;;10.37;65.60
14204;BME280;7185;51.854;6.622;2024-03-07T01:13:29;102237.94;;;10.25;65.61
14204;BME280;7185;51.854;6.622;2024-03-07T01:16:04;102231.94;;;10.36;65.18
14204;BME280;7185;51.854;6.622;2024-03-07T01:18:37;102231.84;;;10.27;65.23
14204;BME280;7185;51.854;6.622;2024-03-07T01:21:11;102231.78;;;10.26;65.11
14204;BME280;7185;51.854;6.622;2024-03-07T01:23:44;102237.94;;;10.28;65.08
14204;BME280;7185;51.854;6.622;2024-03-07T01:26:16;102234.25;;;10.04;65.75
14204;BME280;7185;51.854;6.622;2024-03-07T01:28:48;102230.78;;;10.10;65.28
14204;BME280;7185;51.854;6.622;2024-03-07T01:31:22;102229.09;;;10.16;65.42
14204;BME280;7185;51.854;6.622;2024-03-07T01:33:54;102224.66;;;10.09;65.47
14204;BME280;7185;51.854;6.622;2024-03-07T01:36:26;102227.31;;;10.12;65.62
14204;BME280;7185;51.854;6.622;2024-03-07T01:38:58;102221.94;;;10.00;65.36
14204;BME280;7185;51.854;6.622;2024-03-07T01:41:32;102223.72;;;10.01;65.20
14204;BME280;7185;51.854;6.622;2024-03-07T01:44:05;102220.22;;;10.02;65.47
14204;BME280;7185;51.854;6.622;2024-03-07T01:46:39;102227.19;;;9.97;65.30
14204;BME280;7185;51.854;6.622;2024-03-07T01:49:14;102227.97;;;9.93;65.49
14204;BME280;7185;51.854;6.622;2024-03-07T01:51:48;102224.41;;;9.83;65.76
14204;BME280;7185;51.854;6.622;2024-03-07T01:54:23;102226.16;;;9.82;66.12
14204;BME280;7185;51.854;6.622;2024-03-07T01:56:56;102228.59;;;9.70;65.87
14204;BME280;7185;51.854;6.622;2024-03-07T01:59:29;102219.09;;;9.78;65.86
14204;BME280;7185;51.854;6.622;2024-03-07T02:02:04;102214.47;;;9.55;65.86
14204;BME280;7185;51.854;6.622;2024-03-07T02:04:39;102211.06;;;9.61;65.72
14204;BME280;7185;51.854;6.622;2024-03-07T02:07:11;102212.00;;;9.68;65.00
14204;BME280;7185;51.854;6.622;2024-03-07T02:09:46;102210.13;;;9.56;65.85
14204;BME280;7185;51.854;6.622;2024-03-07T02:12:22;102210.06;;;9.50;65.83
14204;BME280;7185;51.854;6.622;2024-03-07T02:14:55;102212.63;;;9.48;65.46
14204;BME280;7185;51.854;6.622;2024-03-07T02:17:29;102214.19;;;9.31;66.09
14204;BME280;7185;51.854;6.622;2024-03-07T02:20:02;102212.50;;;9.36;65.61
14204;BME280;7185;51.854;6.622;2024-03-07T02:22:37;102207.09;;;9.23;65.70
14204;BME280;7185;51.854;6.622;2024-03-07T02:25:09;102212.50;;;9.36;65.42
14204;BME280;7185;51.854;6.622;2024-03-07T02:27:44;102203.84;;;9.43;65.29
14204;BME280;7185;51.854;6.622;2024-03-07T02:30:17;102204.44;;;9.20;65.24
14204;BME280;7185;51.854;6.622;2024-03-07T02:32:52;102200.09;;;9.22;65.58
14204;BME280;7185;51.854;6.622;2024-03-07T02:35:27;102199.94;;;9.10;65.62
14204;BME280;7185;51.854;6.622;2024-03-07T02:38:01;102197.41;;;9.15;65.41
14204;BME280;7185;51.854;6.622;2024-03-07T02:40:36;102197.34;;;9.13;65.40
14204;BME280;7185;51.854;6.622;2024-03-07T02:43:10;102195.50;;;9.06;65.12
14204;BME280;7185;51.854;6.622;2024-03-07T02:45:46;102201.72;;;9.11;65.24
14204;BME280;7185;51.854;6.622;2024-03-07T02:48:20;102199.03;;;9.05;65.84
14204;BME280;7185;51.854;6.622;2024-03-07T02:50:55;102193.09;;;9.20;65.00
14204;BME280;7185;51.854;6.622;2024-03-07T02:53:28;102186.16;;;9.23;65.47
14204;BME280;7185;51.854;6.622;2024-03-07T02:56:03;102188.78;;;9.25;65.29
14204;BME280;7185;51.854;6.622;2024-03-07T02:58:41;102187.13;;;9.30;65.35
14204;BME280;7185;51.854;6.622;2024-03-07T03:01:13;102186.38;;;9.39;65.20
14204;BME280;7185;51.854;6.622;2024-03-07T03:03:45;102184.47;;;9.25;65.51
14204;BME280;7185;51.854;6.622;2024-03-07T03:06:23;102184.56;;;9.35;65.59
14204;BME280;7185;51.854;6.622;2024-03-07T03:08:58;102184.56;;;9.35;65.38
14204;BME280;7185;51.854;6.622;2024-03-07T03:11:31;102175.00;;;9.37;65.45
14204;BME280;7185;51.854;6.622;2024-03-07T03:14:03;102171.44;;;9.32;65.65
14204;BME280;7185;51.854;6.622;2024-03-07T03:16:35;102180.00;;;9.20;65.94
14204;BME280;7185;51.854;6.622;2024-03-07T03:19:07;102179.22;;;9.25;65.63
14204;BME280;7185;51.854;6.622;2024-03-07T03:21:45;102179.97;;;9.17;65.72
14204;BME280;7185;51.854;6.622;2024-03-07T03:24:20;102170.41;;;9.19;66.01
14204;BME280;7185;51.854;6.622;2024-03-07T03:26:55;102166.22;;;9.32;65.89
14204;BME280;7185;51.854;6.622;2024-03-07T03:29:28;102166.28;;;9.39;65.62
14204;BME280;7185;51.854;6.622;2024-03-07T03:32:04;102167.19;;;9.40;65.57
14204;BME280;7185;51.854;6.622;2024-03-07T03:34:36;102165.41;;;9.39;65.27
14204;BME280;7185;51.854;6.622;2024-03-07T03:37:13;102159.28;;;9.35;65.32
14204;BME280;7185;51.854;6.622;2024-03-07T03:39:47;102159.94;;;9.20;65.61
14204;BME280;7185;51.854;6.622;2024-03-07T03:42:20;102164.13;;;9.06;66.08
14204;BME280;7185;51.854;6.622;2024-03-07T03:44:52;102165.88;;;9.05;66.55
14204;BME280;7185;51.854;6.622;2024-03-07T03:47:24;102159.06;;;9.18;65.66
14204;BME280;7185;51.854;6.622;2024-03-07T03:49:57;102166.88;;;9.15;65.92
14204;BME280;7185;51.854;6.622;2024-03-07T03:52:30;102156.41;;;9.15;65.94
14204;BME280;7185;51.854;6.622;2024-03-07T03:55:08;102159.06;;;9.20;65.75
14204;BME280;7185;51.854;6.622;2024-03-07T03:57:43;102159.00;;;9.15;65.81
14204;BME280;7185;51.854;6.622;2024-03-07T04:00:17;102156.31;;;9.09;65.57
14204;BME280;7185;51.854;6.622;2024-03-07T04:02:54;102153.63;;;9.03;65.93
14204;BME280;7185;51.854;6.622;2024-03-07T04:05:26;102161.41;;;8.97;66.02
14204;BME280;7185;51.854;6.622;2024-03-07T04:07:58;102164.88;;;8.96;65.90
14204;BME280;7185;51.854;6.622;2024-03-07T04:10:39;102157.81;;;8.90;66.06
14204;BME280;7185;51.854;6.622;2024-03-07T04:13:11;102159.47;;;8.83;66.18
14204;BME280;7185;51.854;6.622;2024-03-07T04:15:45;102158.34;;;8.67;66.82
14204;BME280;7185;51.854;6.622;2024-03-07T04:18:20;102167.94;;;8.67;66.67
14204;BME280;7185;51.854;6.622;2024-03-07T04:20:55;102164.47;;;8.66;66.45
14204;BME280;7185;51.854;6.622;2024-03-07T04:23:29;102165.31;;;8.65;66.37
14204;BME280;7185;51.854;6.622;2024-03-07T04:26:03;102160.13;;;8.68;66.50
14204;BME280;7185;51.854;6.622;2024-03-07T04:28:38;102163.59;;;8.67;66.35
14204;BME280;7185;51.854;6.622;2024-03-07T04:31:12;102160.19;;;8.73;65.77
14204;BME280;7185;51.854;6.622;2024-03-07T04:33:45;102154.00;;;8.66;65.96
14204;BME280;7185;51.854;6.622;2024-03-07T04:36:25;102159.25;;;8.66;66.27
14204;BME280;7185;51.854;6.622;2024-03-07T04:38:57;102152.16;;;8.60;66.04
14204;BME280;7185;51.854;6.622;2024-03-07T04:41:34;102148.94;;;8.77;65.75
14204;BME280;7185;51.854;6.622;2024-03-07T04:44:06;102141.09;;;8.79;65.25
14204;BME280;7185;51.854;6.622;2024-03-07T04:46:40;102145.47;;;8.80;65.42
14204;BME280;7185;51.854;6.622;2024-03-07T04:49:17;102142.03;;;8.85;65.17
14204;BME280;7185;51.854;6.622;2024-03-07T04:51:54;102141.09;;;8.79;65.11
14204;BME280;7185;51.854;6.622;2024-03-07T04:54:30;102145.25;;;8.66;65.63
14204;BME280;7185;51.854;6.622;2024-03-07T04:57:04;102145.34;;;8.70;65.42
14204;BME280;7185;51.854;6.622;2024-03-07T04:59:39;102148.63;;;8.55;65.51
14204;BME280;7185;51.854;6.622;2024-03-07T05:02:11;102148.53;;;8.49;65.86
14204;BME280;7185;51.854;6.622;2024-03-07T05:04:47;102152.75;;;8.44;66.03
14204;BME280;7185;51.854;6.622;2024-03-07T05:07:27;102146.50;;;8.36;65.82
14204;BME280;7185;51.854;6.622;2024-03-07T05:10:06;102152.59;;;8.33;66.03
14204;BME280;7185;51.854;6.622;2024-03-07T05:12:45;102154.25;;;8.29;66.31
14204;BME280;7185;51.854;6.622;2024-03-07T05:15:19;102151.63;;;8.26;66.49
14204;BME280;7185;51.854;6.622;2024-03-07T05:17:54;102151.81;;;8.39;65.87
14204;BME280;7185;51.854;6.622;2024-03-07T05:20:32;102148.16;;;8.27;65.90
14204;BME280;7185;51.854;6.622;2024-03-07T05:23:04;102151.91;;;8.45;65.91
14204;BME280;7185;51.854;6.622;2024-03-07T05:25:40;102152.38;;;8.21;65.88
14204;BME280;7185;51.854;6.622;2024-03-07T05:28:23;102150.78;;;8.27;66.24
14204;BME280;7185;51.854;6.622;2024-03-07T05:31:02;102160.41;;;8.32;65.89
14204;BME280;7185;51.854;6.622;2024-03-07T05:33:45;102153.78;;;8.52;65.46
14204;BME280;7185;51.854;6.622;2024-03-07T05:36:20;102153.75;;;8.49;65.58
14204;BME280;7185;51.854;6.622;2024-03-07T05:38:56;102152.66;;;8.39;65.47
14204;BME280;7185;51.854;6.622;2024-03-07T05:41:42;102153.78;;;8.52;65.29
14204;BME280;7185;51.854;6.622;2024-03-07T05:44:17;102162.34;;;8.43;65.32
14204;BME280;7185;51.854;6.622;2024-03-07T05:46:50;102159.63;;;8.37;65.34
14204;BME280;7185;51.854;6.622;2024-03-07T05:49:25;102166.63;;;8.40;65.08
14204;BME280;7185;51.854;6.622;2024-03-07T05:51:58;102161.41;;;8.40;65.13
14204;BME280;7185;51.854;6.622;2024-03-07T05:54:37;102158.69;;;8.34;65.14
14204;BME280;7185;51.854;6.622;2024-03-07T05:57:09;102159.53;;;8.31;65.58
14204;BME280;7185;51.854;6.622;2024-03-07T05:59:43;102157.97;;;8.44;64.95
14204;BME280;7185;51.854;6.622;2024-03-07T06:02:17;102158.81;;;8.41;64.99
14204;BME280;7185;51.854;6.622;2024-03-07T06:04:50;102162.19;;;8.36;64.73
14204;BME280;7185;51.854;6.622;2024-03-07T06:07:25;102164.72;;;8.29;65.04
14204;BME280;7185;51.854;6.622;2024-03-07T06:09:58;102159.72;;;8.43;64.55
14204;BME280;7185;51.854;6.622;2024-03-07T06:12:30;102164.78;;;8.34;64.96
14204;BME280;7185;51.854;6.622;2024-03-07T06:15:04;102165.69;;;8.35;65.18
14204;BME280;7185;51.854;6.622;2024-03-07T06:17:41;102167.44;;;8.36;64.40
14204;BME280;7185;51.854;6.622;2024-03-07T06:20:16;102169.19;;;8.37;64.81
14204;BME280;7185;51.854;6.622;2024-03-07T06:22:55;102171.88;;;8.40;64.52
14204;BME280;7185;51.854;6.622;2024-03-07T06:25:28;102167.59;;;8.45;64.71
14204;BME280;7185;51.854;6.622;2024-03-07T06:28:07;102167.41;;;8.33;64.90
14204;BME280;7185;51.854;6.622;2024-03-07T06:30:46;102168.31;;;8.35;64.19
14204;BME280;7185;51.854;6.622;2024-03-07T06:33:21;102170.03;;;8.34;64.38
14204;BME280;7185;51.854;6.622;2024-03-07T06:35:56;102168.44;;;8.44;64.41
14204;BME280;7185;51.854;6.622;2024-03-07T06:38:45;102177.41;;;8.58;64.34
14204;BME280;7185;51.854;6.622;2024-03-07T06:41:17;102167.84;;;8.60;64.16
14204;BME280;7185;51.854;6.622;2024-03-07T06:43:52;102173.34;;;8.79;63.18
14204;BME280;7185;51.854;6.622;2024-03-07T06:46:29;102173.53;;;8.91;62.90
14204;BME280;7185;51.854;6.622;2024-03-07T06:49:06;102173.63;;;8.98;62.72
14204;BME280;7185;51.854;6.622;2024-03-07T06:51:43;102173.94;;;9.21;61.87
14204;BME280;7185;51.854;6.622;2024-03-07T06:54:21;102171.56;;;9.43;62.35
14204;BME280;7185;51.854;6.622;2024-03-07T06:56:57;102166.47;;;9.55;61.52
14204;BME280;7185;51.854;6.622;2024-03-07T06:59:29;102174.56;;;9.75;61.16
14204;BME280;7185;51.854;6.622;2024-03-07T07:02:08;102175.56;;;9.89;60.42
14204;BME280;7185;51.854;6.622;2024-03-07T07:04:49;102165.25;;;10.08;59.73
14204;BME280;7185;51.854;6.622;2024-03-07T07:07:25;102171.41;;;10.13;59.31
14204;BME280;7185;51.854;6.622;2024-03-07T07:09:57;102173.25;;;10.25;59.66
14204;BME280;7185;51.854;6.622;2024-03-07T07:12:30;102170.03;;;10.54;58.80
14204;BME280;7185;51.854;6.622;2024-03-07T07:15:08;102173.78;;;10.98;57.86
14204;BME280;7185;51.854;6.622;2024-03-07T07:17:43;102178.22;;;11.08;57.36
14204;BME280;7185;51.854;6.622;2024-03-07T07:20:17;102170.41;;;11.25;57.50
14204;BME280;7185;51.854;6.622;2024-03-07T07:22:51;102169.63;;;11.50;56.34
14204;BME280;7185;51.854;6.622;2024-03-07T07:25:24;102169.72;;;11.87;54.92
14204;BME280;7185;51.854;6.622;2024-03-07T07:27:58;102165.31;;;11.95;54.16
14204;BME280;7185;51.854;6.622;2024-03-07T07:30:30;102161.78;;;11.74;54.15
14204;BME280;7185;51.854;6.622;2024-03-07T07:33:06;102160.13;;;12.34;53.42
14204;BME280;7185;51.854;6.622;2024-03-07T07:35:42;102163.59;;;12.68;52.88
14204;BME280;7185;51.854;6.622;2024-03-07T07:38:14;102163.50;;;13.02;51.99
14204;BME280;7185;51.854;6.622;2024-03-07T07:40:46;102154.69;;;13.10;52.44
14204;BME280;7185;51.854;6.622;2024-03-07T07:43:24;102155.56;;;13.16;52.21
14204;BME280;7185;51.854;6.622;2024-03-07T07:45:57;102159.66;;;13.79;50.52
14204;BME280;7185;51.854;6.622;2024-03-07T07:48:31;102153.47;;;13.79;50.19
14204;BME280;7185;51.854;6.622;2024-03-07T07:51:06;102153.78;;;14.50;48.45
14204;BME280;7185;51.854;6.622;2024-03-07T07:53:42;102157.88;;;14.82;47.28
14204;BME280;7185;51.854;6.622;2024-03-07T07:56:15;102160.34;;;14.01;47.05
14204;BME280;7185;51.854;6.622;2024-03-07T07:58:56;102157.59;;;14.20;47.35
14204;BME280;7185;51.854;6.622;2024-03-07T08:01:28;102164.22;;;13.49;46.80
14204;BME280;7185;51.854;6.622;2024-03-07T08:04:18;102157.06;;;13.70;47.98
14204;BME280;7185;51.854;6.622;2024-03-07T08:06:56;102164.16;;;13.59;47.33
14204;BME280;7185;51.854;6.622;2024-03-07T08:09:35;102154.34;;;13.81;47.49
14204;BME280;7185;51.854;6.622;2024-03-07T08:12:13;102154.41;;;13.73;47.64
14204;BME280;7185;51.854;6.622;2024-03-07T08:14:51;102152.53;;;13.86;47.93
14204;BME280;7185;51.854;6.622;2024-03-07T08:17:24;102153.19;;;14.19;46.78
14204;BME280;7185;51.854;6.622;2024-03-07T08:20:06;102151.13;;;14.49;46.26
14204;BME280;7185;51.854;6.622;2024-03-07T08:22:44;102145.38;;;14.08;46.65
14204;BME280;7185;51.854;6.622;2024-03-07T08:25:35;102151.25;;;14.37;45.66
14204;BME280;7185;51.854;6.622;2024-03-07T08:28:24;102153.78;;;14.49;44.97
14204;BME280;7185;51.854;6.622;2024-03-07T08:31:01;102147.84;;;15.12;44.21
14204;BME280;7185;51.854;6.622;2024-03-07T08:33:42;102146.69;;;15.34;43.71
14204;BME280;7185;51.854;6.622;2024-03-07T08:36:40;102137.31;;;16.30;43.27
14204;BME280;7185;51.854;6.622;2024-03-07T08:39:36;102136.06;;;16.49;41.09
14204;BME280;7185;51.854;6.622;2024-03-07T08:42:22;102132.41;;;17.03;40.58
14204;BME280;7185;51.854;6.622;2024-03-07T08:45:13;102127.22;;;17.40;39.54
14204;BME280;7185;51.854;6.622;2024-03-07T08:48:08;102107.13;;;17.67;39.18
14204;BME280;7185;51.854;6.622;2024-03-07T08:51:11;102108.63;;;17.41;38.61
14204;BME280;7185;51.854;6.622;2024-03-07T08:53:51;102121.56;;;16.69;39.97
14204;BME280;7185;51.854;6.622;2024-03-07T08:56:23;102124.63;;;15.38;41.42
14204;BME280;7185;51.854;6.622;2024-03-07T08:58:55;102139.69;;;14.53;44.73
14204;BME280;7185;51.854;6.622;2024-03-07T09:01:28;102135.19;;;14.60;44.87
14204;BME280;7185;51.854;6.622;2024-03-07T09:04:00;102142.13;;;13.69;46.93
14204;BME280;7185;51.854;6.622;2024-03-07T09:06:32;102143.16;;;13.34;48.35
14204;BME280;7185;51.854;6.622;2024-03-07T09:09:06;102145.16;;;12.68;49.43
14204;BME280;7185;51.854;6.622;2024-03-07T09:11:39;102154.88;;;12.29;51.23
14204;BME280;7185;51.854;6.622;2024-03-07T09:14:12;102149.53;;;12.72;51.24
14204;BME280;7185;51.854;6.622;2024-03-07T09:16:44;102155.75;;;12.33;51.60
14204;BME280;7185;51.854;6.622;2024-03-07T09:19:19;102158.31;;;12.65;51.30
14204;BME280;7185;51.854;6.622;2024-03-07T09:21:54;102165.38;;;12.44;52.13
14204;BME280;7185;51.854;6.622;2024-03-07T09:24:31;102165.19;;;11.31;52.78
14204;BME280;7185;51.854;6.622;2024-03-07T09:27:03;102161.78;;;11.62;53.65
14204;BME280;7185;51.854;6.622;2024-03-07T09:29:35;102159.19;;;11.91;53.86
14204;BME280;7185;51.854;6.622;2024-03-07T09:32:07;102156.63;;;11.98;53.34
14204;BME280;7185;51.854;6.622;2024-03-07T09:34:42;102158.38;;;12.43;52.90
14204;BME280;7185;51.854;6.622;2024-03-07T09:37:14;102161.00;;;12.13;52.99
14204;BME280;7185;51.854;6.622;2024-03-07T09:39:50;102160.97;;;11.99;54.03
14204;BME280;7185;51.854;6.622;2024-03-07T09:42:24;102153.13;;;12.13;52.69
14204;BME280;7185;51.854;6.622;2024-03-07T09:44:59;102152.13;;;11.48;53.99
14204;BME280;7185;51.854;6.622;2024-03-07T09:47:33;102147.88;;;12.00;53.62
14204;BME280;7185;51.854;6.622;2024-03-07T09:50:06;102144.34;;;12.26;53.08
14204;BME280;7185;51.854;6.622;2024-03-07T09:52:41;102135.56;;;12.42;52.97
14204;BME280;7185;51.854;6.622;2024-03-07T09:55:15;102133.81;;;12.57;52.27
14204;BME280;7185;51.854;6.622;2024-03-07T09:57:48;102130.25;;;12.70;52.48
14204;BME280;7185;51.854;6.622;2024-03-07T10:00:24;102139.09;;;12.20;52.94
14204;BME280;7185;51.854;6.622;2024-03-07T10:02:58;102137.31;;;12.51;51.52
14204;BME280;7185;51.854;6.622;2024-03-07T10:05:31;102125.91;;;12.54;51.99
14204;BME280;7185;51.854;6.622;2024-03-07T10:08:03;102131.97;;;12.93;51.42
14204;BME280;7185;51.854;6.622;2024-03-07T10:10:38;102122.41;;;12.53;51.57
14204;BME280;7185;51.854;6.622;2024-03-07T10:13:10;102124.06;;;12.81;51.32
14204;BME280;7185;51.854;6.622;2024-03-07T10:15:43;102124.03;;;12.99;51.31
14204;BME280;7185;51.854;6.622;2024-03-07T10:18:15;102122.22;;;13.06;50.28
14204;BME280;7185;51.854;6.622;2024-03-07T10:20:49;102122.28;;;12.94;51.10
14204;BME280;7185;51.854;6.622;2024-03-07T10:23:21;102124.91;;;12.95;50.90
14204;BME280;7185;51.854;6.622;2024-03-07T10:25:55;102122.03;;;13.54;49.06
14204;BME280;7185;51.854;6.622;2024-03-07T10:28:30;102122.09;;;13.43;50.42
14204;BME280;7185;51.854;6.622;2024-03-07T10:31:06;102112.22;;;13.71;50.21
14204;BME280;7185;51.854;6.622;2024-03-07T10:33:48;102112.00;;;13.99;48.81
14204;BME280;7185;51.854;6.622;2024-03-07T10:36:24;102102.28;;;14.93;47.25
14204;BME280;7185;51.854;6.622;2024-03-07T10:39:01;102096.56;;;15.87;45.24
14204;BME280;7185;51.854;6.622;2024-03-07T10:41:45;102097.28;;;15.98;43.42
14204;BME280;7185;51.854;6.622;2024-03-07T10:44:25;102102.69;;;16.42;42.77
14204;BME280;7185;51.854;6.622;2024-03-07T10:46:59;102092.44;;;16.23;43.06
14204;BME280;7185;51.854;6.622;2024-03-07T10:49:36;102100.09;;;15.26;44.50
14204;BME280;7185;51.854;6.622;2024-03-07T10:52:13;102094.78;;;15.29;45.04
14204;BME280;7185;51.854;6.622;2024-03-07T10:55:08;102089.25;;;15.46;45.06
14204;BME280;7185;51.854;6.622;2024-03-07T10:57:49;102079.22;;;16.69;43.36
14204;BME280;7185;51.854;6.622;2024-03-07T11:00:26;102074.03;;;16.63;41.18
14204;BME280;7185;51.854;6.622;2024-03-07T11:03:06;102079.75;;;16.86;42.55
14204;BME280;7185;51.854;6.622;2024-03-07T11:05:41;102072.03;;;18.26;42.12
14204;BME280;7185;51.854;6.622;2024-03-07T11:08:15;102063.22;;;19.47;38.47
14204;BME280;7185;51.854;6.622;2024-03-07T11:10:48;102061.25;;;20.57;36.09
14204;BME280;7185;51.854;6.622;2024-03-07T11:13:22;102060.59;;;20.50;35.73
14204;BME280;7185;51.854;6.622;2024-03-07T11:15:55;102065.41;;;20.40;35.31
14204;BME280;7185;51.854;6.622;2024-03-07T11:18:30;102063.78;;;20.11;35.09
14204;BME280;7185;51.854;6.622;2024-03-07T11:21:02;102064.81;;;19.80;36.64
14204;BME280;7185;51.854;6.622;2024-03-07T11:23:44;102072.59;;;19.02;37.30
14204;BME280;7185;51.854;6.622;2024-03-07T11:26:17;102069.69;;;18.78;38.60
14204;BME280;7185;51.854;6.622;2024-03-07T11:28:51;102067.19;;;19.05;38.44
14204;BME280;7185;51.854;6.622;2024-03-07T11:31:26;102077.56;;;17.82;40.19
14204;BME280;7185;51.854;6.622;2024-03-07T11:34:13;102070.38;;;17.12;40.58
14204;BME280;7185;51.854;6.622;2024-03-07T11:36:47;102070.75;;;18.08;41.31
14204;BME280;7185;51.854;6.622;2024-03-07T11:39:39;102064.00;;;18.29;40.42
14204;BME280;7185;51.854;6.622;2024-03-07T11:42:23;102059.16;;;18.12;41.88
14204;BME280;7185;51.854;6.622;2024-03-07T11:44:59;102053.66;;;17.84;41.12
14204;BME280;7185;51.854;6.622;2024-03-07T11:47:38;102057.09;;;16.71;42.95
14204;BME280;7185;51.854;6.622;2024-03-07T11:50:10;102046.44;;;17.17;41.96
14204;BME280;7185;51.854;6.622;2024-03-07T11:52:42;102042.59;;;17.30;43.16
14204;BME280;7185;51.854;6.622;2024-03-07T11:55:15;102040.38;;;16.68;43.35
14204;BME280;7185;51.854;6.622;2024-03-07T11:57:49;102034.22;;;16.22;43.68
14204;BME280;7185;51.854;6.622;2024-03-07T12:00:25;102020.28;;;17.39;43.98
14204;BME280;7185;51.854;6.622;2024-03-07T12:03:05;102018.94;;;17.21;43.91
14204;BME280;7185;51.854;6.622;2024-03-07T12:05:40;102020.44;;;16.51;45.20
14204;BME280;7185;51.854;6.622;2024-03-07T12:08:12;102019.56;;;16.05;45.81
14204;BME280;7185;51.854;6.622;2024-03-07T12:10:45;102015.22;;;16.01;46.32
14204;BME280;7185;51.854;6.622;2024-03-07T12:13:17;102016.47;;;15.25;47.44
14204;BME280;7185;51.854;6.622;2024-03-07T12:15:52;102013.06;;;15.16;48.32
14204;BME280;7185;51.854;6.622;2024-03-07T12:18:25;102005.75;;;15.88;47.70
14204;BME280;7185;51.854;6.622;2024-03-07T12:20:58;102009.75;;;15.60;48.27
14204;BME280;7185;51.854;6.622;2024-03-07T12:23:33;102006.56;;;15.40;48.68
14204;BME280;7185;51.854;6.622;2024-03-07T12:26:06;102011.38;;;15.11;49.86
14204;BME280;7185;51.854;6.622;2024-03-07T12:28:38;102010.22;;;14.64;50.58
14204;BME280;7185;51.854;6.622;2024-03-07T12:31:16;101996.34;;;14.46;51.18
14204;BME280;7185;51.854;6.622;2024-03-07T12:33:51;101998.28;;;14.32;51.68
14204;BME280;7185;51.854;6.622;2024-03-07T12:36:23;101995.88;;;14.12;51.30
14204;BME280;7185;51.854;6.622;2024-03-07T12:39:04;101989.03;;;13.92;51.75
14204;BME280;7185;51.854;6.622;2024-03-07T12:41:57;101986.44;;;13.86;53.29
14204;BME280;7185;51.854;6.622;2024-03-07T12:44:41;101977.94;;;14.42;52.15
14204;BME280;7185;51.854;6.622;2024-03-07T12:47:20;101979.03;;;14.22;52.89
14204;BME280;7185;51.854;6.622;2024-03-07T12:49:56;101968.69;;;14.80;52.00
14204;BME280;7185;51.854;6.622;2024-03-07T12:52:29;101962.19;;;15.57;49.74
14204;BME280;7185;51.854;6.622;2024-03-07T12:55:01;101966.41;;;15.16;50.63
14204;BME280;7185;51.854;6.622;2024-03-07T12:57:36;101962.81;;;14.58;51.75
14204;BME280;7185;51.854;6.622;2024-03-07T13:00:14;101965.25;;;14.00;51.88
14204;BME280;7185;51.854;6.622;2024-03-07T13:02:52;101962.88;;;14.52;51.48
14204;BME280;7185;51.854;6.622;2024-03-07T13:05:28;101963.47;;;13.99;52.70
14204;BME280;7185;51.854;6.622;2024-03-07T13:08:00;101958.97;;;14.12;52.92
14204;BME280;7185;51.854;6.622;2024-03-07T13:10:35;101955.63;;;13.94;52.94
14204;BME280;7185;51.854;6.622;2024-03-07T13:13:08;101952.34;;;13.70;52.58
14204;BME280;7185;51.854;6.622;2024-03-07T13:15:43;101959.31;;;13.78;51.91
14204;BME280;7185;51.854;6.622;2024-03-07T13:18:19;101940.66;;;12.92;53.21
14204;BME280;7185;51.854;6.622;2024-03-07T13:20:51;101948.13;;;13.52;53.88
14204;BME280;7185;51.854;6.622;2024-03-07T13:23:24;101946.50;;;13.34;54.20
14204;BME280;7185;51.854;6.622;2024-03-07T13:25:58;101939.53;;;13.27;53.64
14204;BME280;7185;51.854;6.622;2024-03-07T13:28:31;101939.50;;;13.29;55.23
14204;BME280;7185;51.854;6.622;2024-03-07T13:31:04;101943.88;;;13.31;53.85
14204;BME280;7185;51.854;6.622;2024-03-07T13:33:38;101942.13;;;13.30;54.44
14204;BME280;7185;51.854;6.622;2024-03-07T13:36:10;101931.28;;;13.67;54.10
14204;BME280;7185;51.854;6.622;2024-03-07T13:38:42;101919.94;;;15.03;50.13
14204;BME280;7185;51.854;6.622;2024-03-07T13:41:14;101911.19;;;16.82;45.68
14204;BME280;7185;51.854;6.622;2024-03-07T13:43:45;101906.16;;;17.77;42.98
14204;BME280;7185;51.854;6.622;2024-03-07T13:46:18;101891.09;;;18.70;40.64
14204;BME280;7185;51.854;6.622;2024-03-07T13:48:53;101904.50;;;18.66;39.53